createdAt,value
2019-04-21T00:00:21.037Z,48.17
2019-04-21T00:01:05.041Z,52.57
2019-04-21T00:01:39.666Z,53.53
2019-04-21T00:02:06.166Z,52.27
2019-04-21T00:02:39.737Z,55.60
2019-04-21T00:03:18.181Z,62.87
2019-04-21T00:03:50.284Z,62.33
2019-04-21T00:04:30.712Z,60.47
2019-04-21T00:05:10.751Z,60.60
2019-04-21T00:05:45.841Z,60.47
2019-04-21T00:06:15.641Z,54.27
2019-04-21T00:06:51.062Z,58.33
2019-04-21T00:07:22.185Z,59.10
2019-04-21T00:08:05.059Z,60.90
2019-04-21T00:08:45.856Z,60.60
2019-04-21T00:09:02.698Z,60.40
2019-04-21T00:09:42.634Z,60.17
2019-04-21T00:10:12.090Z,60.93
2019-04-21T00:10:40.092Z,57.30
2019-04-21T00:11:17.168Z,57.70
2019-04-21T00:11:49.690Z,56.90
2019-04-21T00:12:17.964Z,57.20
2019-04-21T00:12:52.028Z,56.83
2019-04-21T00:13:23.843Z,53.87
2019-04-21T00:13:56.148Z,51.50
2019-04-21T00:14:26.909Z,45.73
2019-04-21T00:15:01.966Z,45.60
2019-04-21T00:15:31.081Z,46.73
2019-04-21T00:16:00.229Z,45.17
2019-04-21T00:16:39.076Z,43.07
2019-04-21T00:17:09.682Z,40.90
2019-04-21T00:17:38.963Z,43.30
2019-04-21T00:18:13.832Z,43.53
2019-04-21T00:18:57.516Z,46.27
2019-04-21T00:19:29.791Z,40.37
2019-04-21T00:20:15.471Z,46.30
2019-04-21T00:20:42.440Z,48.00
2019-04-21T00:21:20.514Z,49.67
2019-04-21T00:21:49.212Z,46.97
2019-04-21T00:22:31.538Z,35.10
2019-04-21T00:23:05.889Z,30.63
2019-04-21T00:23:39.648Z,38.33
2019-04-21T00:24:24.243Z,42.80
2019-04-21T00:24:59.538Z,44.40
2019-04-21T00:25:32.051Z,46.27
2019-04-21T00:26:02.072Z,45.87
2019-04-21T00:26:40.281Z,46.40
2019-04-21T00:27:13.888Z,45.20
2019-04-21T00:27:47.395Z,43.27
2019-04-21T00:28:25.369Z,45.57
2019-04-21T00:28:59.587Z,44.33
2019-04-21T00:29:30.340Z,44.83
2019-04-21T00:30:04.574Z,46.13
2019-04-21T00:30:40.067Z,46.60
2019-04-21T00:31:06.502Z,44.30
2019-04-21T00:31:38.040Z,39.10
2019-04-21T00:32:10.101Z,38.07
2019-04-21T00:32:41.969Z,32.97
2019-04-21T00:33:12.280Z,34.47
2019-04-21T00:33:40.989Z,31.40
2019-04-21T00:34:11.286Z,27.03
2019-04-21T00:34:52.322Z,29.17
2019-04-21T00:35:19.598Z,30.13
2019-04-21T00:35:57.732Z,30.43
2019-04-21T00:36:29.334Z,28.83
2019-04-21T00:37:05.780Z,29.27
2019-04-21T00:37:49.369Z,30.73
2019-04-21T00:38:26.236Z,29.73
2019-04-21T00:39:07.118Z,30.60
2019-04-21T00:39:36.448Z,30.20
2019-04-21T00:40:06.168Z,29.50
2019-04-21T00:40:36.137Z,29.93
2019-04-21T00:41:16.096Z,31.17
2019-04-21T00:41:43.752Z,31.93
2019-04-21T00:42:13.946Z,31.57
2019-04-21T00:42:43.655Z,33.70
2019-04-21T00:43:19.800Z,33.50
2019-04-21T00:43:52.160Z,28.53
2019-04-21T00:44:17.349Z,25.57
2019-04-21T00:44:58.236Z,27.40
2019-04-21T00:45:27.522Z,25.67
2019-04-21T00:45:57.807Z,28.20
2019-04-21T00:46:34.814Z,27.67
2019-04-21T00:47:08.542Z,26.70
2019-04-21T00:47:46.196Z,26.50
2019-04-21T00:48:25.829Z,26.50
2019-04-21T00:48:53.590Z,26.83
2019-04-21T00:49:23.182Z,25.33
2019-04-21T00:50:05.203Z,26.03
2019-04-21T00:50:48.754Z,24.50
2019-04-21T00:52:07.551Z,25.33
2019-04-21T00:52:41.250Z,24.27
2019-04-21T00:53:22.471Z,24.20
2019-04-21T00:54:01.357Z,24.53
2019-04-21T00:54:41.697Z,24.13
2019-04-21T00:55:25.058Z,22.97
2019-04-21T00:55:53.564Z,24.10
2019-04-21T00:56:35.370Z,24.03
2019-04-21T00:56:56.931Z,24.87
2019-04-21T00:57:27.417Z,24.70
2019-04-21T00:58:37.122Z,25.10
2019-04-21T00:59:05.714Z,25.73
2019-04-21T00:59:40.279Z,25.67
2019-04-21T01:00:11.665Z,25.63
2019-04-21T01:00:46.460Z,25.60
2019-04-21T01:01:14.964Z,24.17
2019-04-21T01:01:47.971Z,23.50
2019-04-21T01:02:26.119Z,24.40
2019-04-21T01:02:56.092Z,24.17
2019-04-21T01:03:36.173Z,26.07
2019-04-21T01:04:04.836Z,28.07
2019-04-21T01:04:36.871Z,27.90
2019-04-21T01:05:11.113Z,26.90
2019-04-21T01:05:49.853Z,27.10
2019-04-21T01:06:16.485Z,29.27
2019-04-21T01:06:48.056Z,28.10
2019-04-21T01:07:21.467Z,27.77
2019-04-21T01:07:50.615Z,27.53
2019-04-21T01:08:28.223Z,26.07
2019-04-21T01:09:00.906Z,25.93
2019-04-21T01:09:27.573Z,23.53
2019-04-21T01:09:58.966Z,19.93
2019-04-21T01:10:28.943Z,19.17
2019-04-21T01:11:15.328Z,17.27
2019-04-21T01:11:47.348Z,16.97
2019-04-21T01:12:19.059Z,14.87
2019-04-21T01:13:02.655Z,14.87
2019-04-21T01:13:27.864Z,15.10
2019-04-21T01:13:58.022Z,14.83
2019-04-21T01:14:35.870Z,14.97
2019-04-21T01:15:10.668Z,16.00
2019-04-21T01:15:43.589Z,15.33
2019-04-21T01:16:14.515Z,15.77
2019-04-21T01:16:45.777Z,16.67
2019-04-21T01:17:20.228Z,15.93
2019-04-21T01:17:51.946Z,15.43
2019-04-21T01:18:20.733Z,16.83
2019-04-21T01:18:57.718Z,16.80
2019-04-21T01:19:26.697Z,16.70
2019-04-21T01:19:57.227Z,17.83
2019-04-21T01:20:17.678Z,17.73
2019-04-21T01:20:48.070Z,16.47
2019-04-21T01:21:19.262Z,17.53
2019-04-21T01:21:50.946Z,16.83
2019-04-21T01:22:22.138Z,17.27
2019-04-21T01:22:53.716Z,16.70
2019-04-21T01:23:25.551Z,15.63
2019-04-21T01:24:07.941Z,16.03
2019-04-21T01:24:34.712Z,15.67
2019-04-21T01:25:14.467Z,14.97
2019-04-21T01:25:46.053Z,15.37
2019-04-21T01:26:22.641Z,15.80
2019-04-21T01:26:59.621Z,14.43
2019-04-21T01:27:39.810Z,15.00
2019-04-21T01:28:03.875Z,14.77
2019-04-21T01:28:41.045Z,15.00
2019-04-21T01:29:12.095Z,14.20
2019-04-21T01:29:53.100Z,14.07
2019-04-21T01:30:31.196Z,14.03
2019-04-21T01:30:57.125Z,14.70
2019-04-21T01:31:30.608Z,15.03
2019-04-21T01:32:13.454Z,14.57
2019-04-21T01:32:46.843Z,14.53
2019-04-21T01:33:16.327Z,15.37
2019-04-21T01:33:50.680Z,14.37
2019-04-21T01:34:20.595Z,14.60
2019-04-21T01:34:54.014Z,14.20
2019-04-21T01:35:25.437Z,14.57
2019-04-21T01:35:58.097Z,14.53
2019-04-21T01:36:33.687Z,15.07
2019-04-21T01:36:58.453Z,15.00
2019-04-21T01:37:47.953Z,14.63
2019-04-21T01:38:14.247Z,14.30
2019-04-21T01:38:52.425Z,15.17
2019-04-21T01:39:22.532Z,14.50
2019-04-21T01:39:53.264Z,15.27
2019-04-21T01:40:28.987Z,14.33
2019-04-21T01:41:21.020Z,13.77
2019-04-21T01:42:03.303Z,13.50
2019-04-21T01:42:38.176Z,15.50
2019-04-21T01:43:14.817Z,14.53
2019-04-21T01:43:45.806Z,13.67
2019-04-21T01:44:24.969Z,15.07
2019-04-21T01:44:54.868Z,14.33
2019-04-21T01:45:22.392Z,14.77
2019-04-21T01:45:53.586Z,15.43
2019-04-21T01:46:29.629Z,15.73
2019-04-21T01:46:58.233Z,16.53
2019-04-21T01:47:36.106Z,19.77
2019-04-21T01:48:05.797Z,19.57
2019-04-21T01:48:39.118Z,19.87
2019-04-21T01:49:13.140Z,19.47
2019-04-21T01:49:44.935Z,18.53
2019-04-21T01:50:26.053Z,18.70
2019-04-21T01:50:55.587Z,17.83
2019-04-21T01:51:45.376Z,16.67
2019-04-21T01:53:36.435Z,16.77
2019-04-21T01:54:16.000Z,17.00
2019-04-21T01:54:55.861Z,15.07
2019-04-21T01:55:28.884Z,15.13
2019-04-21T01:56:11.731Z,15.30
2019-04-21T01:57:02.121Z,15.77
2019-04-21T01:57:34.707Z,15.83
2019-04-21T01:58:09.361Z,16.47
2019-04-21T01:58:41.676Z,16.33
2019-04-21T01:59:08.975Z,17.17
2019-04-21T01:59:54.350Z,16.53
2019-04-21T02:00:30.504Z,17.43
2019-04-21T02:01:03.601Z,17.47
2019-04-21T02:01:38.837Z,17.13
2019-04-21T02:02:11.008Z,19.67
2019-04-21T02:02:48.635Z,19.37
2019-04-21T02:03:38.845Z,20.30
2019-04-21T02:03:58.435Z,19.60
2019-04-21T02:04:29.238Z,17.93
2019-04-21T02:05:03.212Z,18.63
2019-04-21T02:05:39.357Z,19.40
2019-04-21T02:06:13.306Z,17.63
2019-04-21T02:06:41.300Z,17.43
2019-04-21T02:07:11.625Z,16.97
2019-04-21T02:07:45.875Z,17.57
2019-04-21T02:08:15.524Z,17.97
2019-04-21T02:08:49.305Z,17.90
2019-04-21T02:09:27.373Z,18.13
2019-04-21T02:10:05.143Z,18.30
2019-04-21T02:10:40.386Z,18.70
2019-04-21T02:11:13.866Z,18.17
2019-04-21T02:11:43.359Z,18.40
2019-04-21T02:12:18.925Z,18.47
2019-04-21T02:12:51.066Z,18.07
2019-04-21T02:13:17.647Z,17.67
2019-04-21T02:14:03.913Z,17.80
2019-04-21T02:14:31.547Z,17.97
2019-04-21T02:15:07.717Z,16.77
2019-04-21T02:15:46.971Z,18.07
2019-04-21T02:16:11.424Z,17.10
2019-04-21T02:16:40.553Z,18.10
2019-04-21T02:17:18.700Z,17.73
2019-04-21T02:17:46.998Z,16.10
2019-04-21T02:18:22.093Z,17.10
2019-04-21T02:18:54.469Z,16.40
2019-04-21T02:19:27.856Z,16.73
2019-04-21T02:19:55.177Z,17.27
2019-04-21T02:20:25.737Z,15.80
2019-04-21T02:20:53.851Z,17.67
2019-04-21T02:21:36.967Z,19.13
2019-04-21T02:22:12.541Z,19.60
2019-04-21T02:23:07.418Z,20.67
2019-04-21T02:23:34.354Z,19.97
2019-04-21T02:23:58.697Z,19.40
2019-04-21T02:24:36.496Z,19.67
2019-04-21T02:25:06.375Z,18.53
2019-04-21T02:25:50.980Z,19.37
2019-04-21T02:26:09.732Z,19.30
2019-04-21T02:26:44.379Z,18.97
2019-04-21T02:27:14.872Z,18.77
2019-04-21T02:27:51.551Z,18.17
2019-04-21T02:28:33.045Z,17.47
2019-04-21T02:28:57.436Z,18.00
2019-04-21T02:29:33.004Z,17.50
2019-04-21T02:30:00.066Z,17.10
2019-04-21T02:30:52.167Z,16.77
2019-04-21T02:31:45.259Z,17.80
2019-04-21T02:32:27.904Z,17.70
2019-04-21T02:33:03.780Z,17.67
2019-04-21T02:33:38.722Z,18.20
2019-04-21T02:34:02.719Z,18.77
2019-04-21T02:35:14.231Z,20.70
2019-04-21T02:36:00.542Z,20.47
2019-04-21T02:36:53.479Z,20.87
2019-04-21T02:38:03.842Z,20.87
2019-04-21T02:38:33.836Z,20.40
2019-04-21T02:39:11.507Z,20.13
2019-04-21T02:39:40.597Z,19.87
2019-04-21T02:40:17.358Z,20.50
2019-04-21T02:41:06.060Z,19.73
2019-04-21T02:41:52.130Z,20.57
2019-04-21T02:42:18.687Z,19.77
2019-04-21T02:42:56.111Z,17.17
2019-04-21T02:44:02.255Z,17.57
2019-04-21T02:44:38.614Z,19.03
2019-04-21T02:45:43.480Z,18.73
2019-04-21T02:46:13.013Z,18.43
2019-04-21T02:46:45.406Z,18.43
2019-04-21T02:47:34.545Z,18.93
2019-04-21T02:47:54.851Z,18.60
2019-04-21T02:49:11.108Z,18.53
2019-04-21T02:49:45.237Z,18.23
2019-04-21T02:50:45.178Z,18.27
2019-04-21T02:51:12.562Z,17.53
2019-04-21T02:51:50.948Z,17.47
2019-04-21T02:52:30.082Z,18.60
2019-04-21T02:53:32.390Z,19.47
2019-04-21T02:54:35.951Z,20.03
2019-04-21T02:54:48.314Z,21.43
2019-04-21T02:55:02.375Z,21.27
2019-04-21T02:56:13.894Z,20.53
2019-04-21T02:56:43.808Z,19.73
2019-04-21T02:57:49.403Z,20.27
2019-04-21T02:58:42.160Z,20.37
2019-04-21T02:59:20.012Z,20.73
2019-04-21T03:00:06.472Z,21.97
2019-04-21T03:00:32.867Z,22.47
2019-04-21T03:01:23.643Z,23.17
2019-04-21T03:02:03.611Z,21.77
2019-04-21T03:03:21.380Z,19.63
2019-04-21T03:03:58.815Z,20.20
2019-04-21T03:04:34.619Z,18.23
2019-04-21T03:05:29.135Z,17.07
2019-04-21T03:06:50.546Z,15.77
2019-04-21T03:08:34.284Z,14.80
2019-04-21T03:09:15.420Z,14.60
2019-04-21T03:10:12.316Z,14.23
2019-04-21T03:10:52.937Z,14.50
2019-04-21T03:11:21.981Z,13.90
2019-04-21T03:11:56.066Z,13.97
2019-04-21T03:13:03.648Z,14.93
2019-04-21T03:14:47.620Z,14.57
2019-04-21T03:16:42.999Z,14.30
2019-04-21T03:17:59.819Z,14.10
2019-04-21T03:19:48.235Z,13.77
2019-04-21T03:20:14.814Z,14.63
2019-04-21T03:21:48.991Z,12.63
2019-04-21T03:22:21.007Z,14.07
2019-04-21T03:22:59.944Z,13.10
2019-04-21T03:23:31.970Z,13.43
2019-04-21T03:23:59.585Z,13.77
2019-04-21T03:25:20.377Z,13.73
2019-04-21T03:26:24.219Z,14.00
2019-04-21T03:27:04.836Z,14.00
2019-04-21T03:27:56.910Z,15.37
2019-04-21T03:28:29.819Z,14.57
2019-04-21T03:30:13.277Z,14.50
2019-04-21T03:31:06.736Z,15.67
2019-04-21T03:35:00.293Z,16.23
2019-04-21T03:36:56.906Z,16.60
2019-04-21T03:37:32.955Z,15.67
2019-04-21T03:38:17.273Z,16.60
2019-04-21T03:38:31.821Z,17.17
2019-04-21T03:39:31.252Z,16.60
2019-04-21T03:40:03.319Z,16.63
2019-04-21T03:40:33.171Z,16.77
2019-04-21T03:41:12.368Z,17.27
2019-04-21T03:41:48.837Z,17.03
2019-04-21T03:42:47.711Z,15.93
2019-04-21T03:43:38.307Z,16.07
2019-04-21T03:44:02.955Z,16.93
2019-04-21T03:44:32.606Z,16.80
2019-04-21T03:45:03.640Z,16.23
2019-04-21T03:45:39.016Z,17.57
2019-04-21T03:46:08.174Z,18.57
2019-04-21T03:46:47.392Z,18.23
2019-04-21T03:47:43.489Z,18.30
2019-04-21T03:48:35.631Z,19.53
2019-04-21T03:50:05.229Z,20.33
2019-04-21T03:50:29.667Z,19.57
2019-04-21T03:51:15.857Z,20.17
2019-04-21T03:52:53.280Z,19.30
2019-04-21T03:53:24.920Z,18.83
2019-04-21T03:53:55.763Z,18.23
2019-04-21T03:54:26.909Z,20.50
2019-04-21T03:57:17.818Z,18.20
2019-04-21T03:58:02.075Z,19.50
2019-04-21T03:58:19.666Z,19.50
2019-04-21T03:58:54.163Z,19.27
2019-04-21T03:59:48.308Z,19.60
2019-04-21T04:00:33.639Z,18.40
2019-04-21T04:01:11.418Z,18.23
2019-04-21T04:02:06.783Z,18.83
2019-04-21T04:02:36.628Z,18.43
2019-04-21T04:03:26.780Z,18.87
2019-04-21T04:04:30.680Z,18.90
2019-04-21T04:04:52.802Z,18.70
2019-04-21T04:05:55.587Z,20.70
2019-04-21T04:06:28.045Z,20.37
2019-04-21T04:07:11.403Z,20.80
2019-04-21T04:07:52.029Z,20.70
2019-04-21T04:08:37.271Z,21.63
2019-04-21T04:09:52.739Z,21.83
2019-04-21T04:10:28.914Z,23.30
2019-04-21T04:11:04.632Z,23.30
2019-04-21T04:11:58.449Z,24.17
2019-04-21T04:12:38.199Z,24.20
2019-04-21T04:13:05.444Z,24.70
2019-04-21T04:14:44.443Z,26.50
2019-04-21T04:15:22.805Z,27.00
2019-04-21T04:15:56.192Z,27.97
2019-04-21T04:17:04.859Z,27.53
2019-04-21T04:18:07.726Z,29.30
2019-04-21T04:18:48.876Z,29.90
2019-04-21T04:19:09.150Z,29.67
2019-04-21T04:20:22.429Z,30.03
2019-04-21T04:21:00.358Z,29.97
2019-04-21T04:21:28.373Z,28.90
2019-04-21T04:22:15.400Z,27.43
2019-04-21T04:22:38.848Z,28.60
2019-04-21T04:23:03.362Z,27.23
2019-04-21T04:25:49.812Z,28.23
2019-04-21T04:26:26.045Z,27.50
2019-04-21T04:26:55.186Z,28.43
2019-04-21T04:28:49.772Z,30.17
2019-04-21T04:29:40.108Z,28.37
2019-04-21T04:30:47.607Z,27.30
2019-04-21T04:32:30.688Z,26.07
2019-04-21T04:32:59.219Z,24.67
2019-04-21T04:34:14.611Z,25.20
2019-04-21T04:34:48.498Z,28.30
2019-04-21T04:35:14.445Z,29.50
2019-04-21T04:36:50.284Z,32.47
2019-04-21T04:37:15.293Z,34.27
2019-04-21T04:38:39.240Z,37.93
2019-04-21T04:40:05.801Z,39.40
2019-04-21T04:40:39.419Z,39.33
2019-04-21T04:41:28.953Z,39.77
2019-04-21T04:44:46.632Z,37.53
2019-04-21T04:46:06.707Z,34.87
2019-04-21T04:46:52.821Z,34.97
2019-04-21T04:47:22.803Z,36.33
2019-04-21T04:47:56.554Z,36.63
2019-04-21T04:48:19.456Z,34.43
2019-04-21T04:49:10.978Z,34.10
2019-04-21T04:49:42.169Z,28.57
2019-04-21T04:50:15.463Z,27.10
2019-04-21T04:51:14.499Z,26.90
2019-04-21T04:51:58.639Z,25.03
2019-04-21T04:52:48.715Z,23.73
2019-04-21T04:53:50.684Z,25.10
2019-04-21T04:54:41.822Z,24.90
2019-04-21T04:55:01.796Z,26.10
2019-04-21T04:55:43.394Z,25.33
2019-04-21T04:56:12.162Z,26.33
2019-04-21T04:56:54.235Z,26.00
2019-04-21T04:57:45.520Z,25.60
2019-04-21T05:00:14.289Z,22.70
2019-04-21T05:00:54.590Z,25.23
2019-04-21T05:01:29.806Z,20.60
2019-04-21T05:01:53.136Z,23.17
2019-04-21T05:02:33.707Z,28.33
2019-04-21T05:02:48.934Z,27.87
2019-04-21T05:03:40.146Z,23.40
2019-04-21T05:04:00.391Z,21.53
2019-04-21T05:04:37.463Z,20.90
2019-04-21T05:05:19.420Z,21.13
2019-04-21T05:06:25.194Z,20.67
2019-04-21T05:07:21.332Z,19.43
2019-04-21T05:08:34.533Z,19.87
2019-04-21T05:09:07.923Z,19.67
2019-04-21T05:09:31.970Z,19.70
2019-04-21T05:09:59.508Z,19.30
2019-04-21T05:10:47.596Z,20.53
2019-04-21T05:11:28.365Z,20.13
2019-04-21T05:12:11.876Z,22.57
2019-04-21T05:13:06.214Z,22.93
2019-04-21T05:13:29.229Z,21.77
2019-04-21T05:14:02.689Z,23.37
2019-04-21T05:14:30.368Z,21.93
2019-04-21T05:15:10.133Z,22.30
2019-04-21T05:15:41.698Z,22.50
2019-04-21T05:16:11.832Z,22.27
2019-04-21T05:17:52.484Z,20.73
2019-04-21T05:18:25.142Z,19.93
2019-04-21T05:19:04.109Z,19.80
2019-04-21T05:20:26.094Z,19.37
2019-04-21T05:21:12.950Z,19.90
2019-04-21T05:22:17.197Z,20.43
2019-04-21T05:22:45.936Z,20.73
2019-04-21T05:23:11.955Z,20.83
2019-04-21T05:23:45.608Z,20.30
2019-04-21T05:24:16.512Z,20.80
2019-04-21T05:24:50.956Z,20.40
2019-04-21T05:25:23.056Z,21.17
2019-04-21T05:25:55.780Z,21.03
2019-04-21T05:26:25.804Z,34.77
2019-04-21T05:26:59.576Z,26.40
2019-04-21T05:27:33.555Z,24.80
2019-04-21T05:28:09.057Z,20.83
2019-04-21T05:28:41.893Z,19.93
2019-04-21T05:29:13.225Z,21.07
2019-04-21T05:30:03.193Z,22.60
2019-04-21T05:30:33.824Z,20.27
2019-04-21T05:31:15.166Z,19.10
2019-04-21T05:31:46.310Z,17.57
2019-04-21T05:32:28.292Z,18.53
2019-04-21T05:33:05.614Z,19.20
2019-04-21T05:33:46.004Z,18.50
2019-04-21T05:34:22.035Z,18.40
2019-04-21T05:34:56.898Z,17.70
2019-04-21T05:35:45.290Z,18.00
2019-04-21T05:36:20.380Z,18.43
2019-04-21T05:37:03.950Z,18.67
2019-04-21T05:37:35.402Z,19.20
2019-04-21T05:38:10.594Z,19.87
2019-04-21T05:38:47.777Z,19.93
2019-04-21T05:39:33.594Z,19.80
2019-04-21T05:40:10.242Z,19.90
2019-04-21T05:40:41.455Z,19.90
2019-04-21T05:41:14.362Z,19.97
2019-04-21T05:41:43.204Z,19.97
2019-04-21T05:42:24.993Z,18.60
2019-04-21T05:42:54.891Z,19.87
2019-04-21T05:43:36.094Z,19.80
2019-04-21T05:44:03.798Z,19.20
2019-04-21T05:44:57.154Z,18.87
2019-04-21T05:45:19.570Z,19.03
2019-04-21T05:45:47.414Z,18.60
2019-04-21T05:46:21.269Z,17.80
2019-04-21T05:46:59.402Z,17.73
2019-04-21T05:47:34.907Z,17.40
2019-04-21T05:48:11.697Z,16.70
2019-04-21T05:48:39.651Z,17.03
2019-04-21T05:49:10.985Z,16.07
2019-04-21T05:49:49.840Z,16.33
2019-04-21T05:50:23.840Z,15.77
2019-04-21T05:50:58.879Z,15.43
2019-04-21T05:51:33.756Z,15.97
2019-04-21T05:52:05.528Z,14.87
2019-04-21T05:52:35.654Z,15.47
2019-04-21T05:53:20.241Z,16.83
2019-04-21T05:53:49.270Z,18.20
2019-04-21T05:54:29.642Z,16.63
2019-04-21T05:54:57.807Z,17.37
2019-04-21T05:55:34.057Z,17.13
2019-04-21T05:56:06.193Z,16.50
2019-04-21T05:56:35.166Z,15.03
2019-04-21T05:57:05.275Z,15.23
2019-04-21T05:57:44.231Z,15.67
2019-04-21T05:58:27.312Z,14.63
2019-04-21T05:58:43.993Z,14.53
2019-04-21T05:59:15.162Z,13.60
2019-04-21T05:59:49.157Z,13.23
2019-04-21T06:00:39.704Z,13.10
2019-04-21T06:01:42.032Z,12.47
2019-04-21T06:02:52.091Z,11.27
2019-04-21T06:03:29.247Z,11.30
2019-04-21T06:03:57.539Z,12.17
2019-04-21T06:04:52.338Z,11.20
2019-04-21T06:06:13.966Z,12.80
2019-04-21T06:06:39.681Z,12.57
2019-04-21T06:07:21.549Z,13.33
2019-04-21T06:07:47.226Z,13.13
2019-04-21T06:08:18.127Z,13.07
2019-04-21T06:08:53.671Z,13.50
2019-04-21T06:09:30.454Z,14.27
2019-04-21T06:10:45.934Z,14.87
2019-04-21T06:11:19.066Z,14.57
2019-04-21T06:11:45.797Z,14.53
2019-04-21T06:12:14.698Z,14.90
2019-04-21T06:12:52.262Z,14.60
2019-04-21T06:13:33.452Z,18.17
2019-04-21T06:14:31.181Z,17.50
2019-04-21T06:15:03.830Z,17.37
2019-04-21T06:15:39.610Z,16.57
2019-04-21T06:16:07.308Z,16.13
2019-04-21T06:16:49.457Z,16.50
2019-04-21T06:17:19.790Z,16.30
2019-04-21T06:17:52.203Z,16.80
2019-04-21T06:18:27.195Z,15.97
2019-04-21T06:19:38.580Z,16.97
2019-04-21T06:20:01.884Z,16.57
2019-04-21T06:20:35.475Z,16.57
2019-04-21T06:21:40.053Z,16.73
2019-04-21T06:22:11.911Z,16.00
2019-04-21T06:22:50.567Z,16.30
2019-04-21T06:23:28.717Z,15.97
2019-04-21T06:23:51.440Z,15.43
2019-04-21T06:24:39.038Z,13.77
2019-04-21T06:26:17.904Z,14.33
2019-04-21T06:26:56.269Z,14.30
2019-04-21T06:27:16.341Z,13.73
2019-04-21T06:27:44.400Z,13.53
2019-04-21T06:28:21.026Z,11.80
2019-04-21T06:29:03.580Z,11.50
2019-04-21T06:29:30.215Z,11.97
2019-04-21T06:30:01.860Z,11.53
2019-04-21T06:30:42.626Z,11.57
2019-04-21T06:31:18.096Z,11.43
2019-04-21T06:32:30.373Z,12.33
2019-04-21T06:33:20.195Z,11.87
2019-04-21T06:33:50.478Z,11.20
2019-04-21T06:34:25.031Z,10.57
2019-04-21T06:35:23.772Z,11.07
2019-04-21T06:36:56.676Z,9.77
2019-04-21T06:37:21.656Z,9.07
2019-04-21T06:37:59.887Z,10.97
2019-04-21T06:38:25.485Z,8.97
2019-04-21T06:39:12.046Z,9.73
2019-04-21T06:39:34.852Z,9.57
2019-04-21T06:40:40.678Z,9.60
2019-04-21T06:41:05.095Z,10.17
2019-04-21T06:41:40.919Z,9.40
2019-04-21T06:42:09.088Z,9.37
2019-04-21T06:42:50.247Z,8.53
2019-04-21T06:43:27.419Z,8.80
2019-04-21T06:43:56.262Z,8.53
2019-04-21T06:44:20.325Z,8.60
2019-04-21T06:45:03.763Z,9.10
2019-04-21T06:45:34.870Z,8.87
2019-04-21T06:46:08.980Z,8.10
2019-04-21T06:46:40.463Z,8.30
2019-04-21T06:47:16.283Z,7.50
2019-04-21T06:48:18.444Z,8.20
2019-04-21T06:48:57.049Z,8.43
2019-04-21T06:49:22.275Z,8.17
2019-04-21T06:49:58.977Z,7.07
2019-04-21T06:50:34.621Z,7.57
2019-04-21T06:51:10.727Z,7.43
2019-04-21T06:51:33.734Z,7.60
2019-04-21T06:52:20.622Z,8.47
2019-04-21T06:52:50.007Z,7.50
2019-04-21T06:53:20.674Z,8.27
2019-04-21T06:53:52.697Z,7.33
2019-04-21T06:54:23.904Z,7.80
2019-04-21T06:54:56.108Z,7.43
2019-04-21T06:55:27.900Z,7.60
2019-04-21T06:56:04.627Z,7.50
2019-04-21T06:57:16.507Z,7.60
2019-04-21T06:57:39.968Z,7.70
2019-04-21T06:58:10.162Z,7.83
2019-04-21T06:58:48.151Z,8.07
2019-04-21T06:59:17.048Z,7.60
2019-04-21T06:59:54.348Z,7.07
2019-04-21T07:00:24.744Z,7.47
2019-04-21T07:01:00.467Z,7.10
2019-04-21T07:01:39.032Z,7.80
2019-04-21T07:02:24.337Z,7.03
2019-04-21T07:03:25.346Z,7.40
2019-04-21T07:04:24.252Z,6.87
2019-04-21T07:04:54.723Z,7.87
2019-04-21T07:05:34.644Z,7.93
2019-04-21T07:06:06.533Z,8.57
2019-04-21T07:06:36.272Z,8.37
2019-04-21T07:07:08.316Z,8.53
2019-04-21T07:07:43.404Z,8.77
2019-04-21T07:08:30.919Z,8.17
2019-04-21T07:08:53.260Z,7.93
2019-04-21T07:09:25.707Z,8.07
2019-04-21T07:09:55.072Z,8.53
2019-04-21T07:10:30.733Z,8.10
2019-04-21T07:10:56.741Z,8.03
2019-04-21T07:11:33.727Z,8.03
2019-04-21T07:12:10.086Z,8.57
2019-04-21T07:12:39.401Z,7.70
2019-04-21T07:13:08.112Z,7.90
2019-04-21T07:13:49.135Z,8.77
2019-04-21T07:14:52.699Z,7.93
2019-04-21T07:15:30.405Z,7.70
2019-04-21T07:16:06.693Z,7.53
2019-04-21T07:16:32.133Z,7.83
2019-04-21T07:17:11.436Z,6.90
2019-04-21T07:18:13.691Z,7.77
2019-04-21T07:18:51.254Z,8.00
2019-04-21T07:19:42.779Z,7.50
2019-04-21T07:19:55.376Z,7.80
2019-04-21T07:20:22.004Z,7.20
2019-04-21T07:21:02.787Z,7.90
2019-04-21T07:21:33.823Z,7.70
2019-04-21T07:22:12.337Z,7.17
2019-04-21T07:22:44.618Z,7.07
2019-04-21T07:23:16.271Z,8.03
2019-04-21T07:23:46.251Z,7.62
2019-04-21T07:24:56.019Z,7.57
2019-04-21T07:25:27.972Z,7.00
2019-04-21T07:26:05.819Z,7.80
2019-04-21T07:26:36.712Z,7.50
2019-04-21T07:27:08.977Z,7.73
2019-04-21T07:27:43.052Z,7.95
2019-04-21T07:28:12.843Z,7.00
2019-04-21T07:28:52.707Z,7.12
2019-04-21T07:29:20.636Z,6.10
2019-04-21T07:29:55.157Z,6.75
2019-04-21T07:30:31.728Z,7.10
2019-04-21T07:31:03.657Z,6.35
2019-04-21T07:31:40.237Z,7.07
2019-04-21T07:32:22.186Z,6.63
2019-04-21T07:32:44.209Z,6.03
2019-04-21T07:33:33.189Z,6.50
2019-04-21T07:34:51.516Z,6.37
2019-04-21T07:35:28.123Z,6.57
2019-04-21T07:35:59.385Z,6.23
2019-04-21T07:36:39.793Z,6.00
2019-04-21T07:37:20.682Z,6.20
2019-04-21T07:37:35.470Z,5.70
2019-04-21T07:38:12.071Z,5.70
2019-04-21T07:38:41.268Z,5.33
2019-04-21T07:39:15.295Z,5.37
2019-04-21T07:39:52.755Z,5.07
2019-04-21T07:40:21.765Z,5.23
2019-04-21T07:40:52.634Z,5.73
2019-04-21T07:41:25.104Z,5.97
2019-04-21T07:41:59.554Z,5.67
2019-04-21T07:42:35.519Z,5.57
2019-04-21T07:43:05.650Z,5.37
2019-04-21T07:43:41.322Z,4.90
2019-04-21T07:44:10.375Z,5.50
2019-04-21T07:44:40.894Z,6.47
2019-04-21T07:45:19.499Z,6.40
2019-04-21T07:45:49.611Z,6.10
2019-04-21T07:46:23.755Z,6.30
2019-04-21T07:46:58.552Z,6.57
2019-04-21T07:47:48.010Z,4.87
2019-04-21T07:48:26.308Z,4.70
2019-04-21T07:49:02.466Z,5.57
2019-04-21T07:49:41.543Z,5.07
2019-04-21T07:50:14.886Z,4.00
2019-04-21T07:51:09.164Z,4.85
2019-04-21T07:51:37.690Z,4.40
2019-04-21T07:52:22.369Z,4.20
2019-04-21T07:53:08.320Z,4.70
2019-04-21T07:53:52.522Z,4.80
2019-04-21T07:54:26.968Z,4.83
2019-04-21T07:55:01.634Z,4.67
2019-04-21T07:55:37.269Z,4.87
2019-04-21T07:56:16.192Z,4.45
2019-04-21T07:56:56.059Z,4.67
2019-04-21T07:57:34.475Z,5.83
2019-04-21T07:58:24.275Z,5.93
2019-04-21T07:58:51.049Z,5.28
2019-04-21T07:59:18.871Z,5.73
2019-04-21T08:00:01.467Z,4.55
2019-04-21T08:00:56.476Z,5.22
2019-04-21T08:01:31.421Z,4.87
2019-04-21T08:02:01.018Z,4.20
2019-04-21T08:02:37.339Z,4.67
2019-04-21T08:03:09.205Z,5.00
2019-04-21T08:03:42.843Z,5.13
2019-04-21T08:04:34.653Z,4.47
2019-04-21T08:05:07.513Z,4.80
2019-04-21T08:05:26.766Z,5.25
2019-04-21T08:05:58.446Z,4.70
2019-04-21T08:06:57.161Z,4.50
2019-04-21T08:07:05.206Z,4.43
2019-04-21T08:07:45.047Z,5.40
2019-04-21T08:07:59.565Z,4.95
2019-04-21T08:08:34.291Z,5.17
2019-04-21T08:09:12.232Z,5.65
2019-04-21T08:09:46.783Z,5.50
2019-04-21T08:10:15.667Z,5.23
2019-04-21T08:10:50.646Z,4.85
2019-04-21T08:11:21.012Z,4.65
2019-04-21T08:11:51.849Z,4.90
2019-04-21T08:12:24.668Z,5.25
2019-04-21T08:13:00.122Z,6.00
2019-04-21T08:13:42.968Z,5.57
2019-04-21T08:14:09.619Z,5.93
2019-04-21T08:14:42.891Z,5.30
2019-04-21T08:15:19.424Z,5.97
2019-04-21T08:15:52.839Z,6.33
2019-04-21T08:16:25.602Z,5.90
2019-04-21T08:16:57.659Z,5.62
2019-04-21T08:17:34.451Z,6.33
2019-04-21T08:18:02.711Z,5.83
2019-04-21T08:19:14.502Z,5.75
2019-04-21T08:19:36.898Z,5.40
2019-04-21T08:20:15.693Z,5.87
2019-04-21T08:20:47.900Z,5.53
2019-04-21T08:21:20.735Z,5.15
2019-04-21T08:22:00.096Z,4.67
2019-04-21T08:22:34.932Z,4.62
2019-04-21T08:23:39.915Z,4.58
2019-04-21T08:24:07.018Z,5.20
2019-04-21T08:24:45.253Z,4.78
2019-04-21T08:25:17.867Z,5.20
2019-04-21T08:26:03.693Z,4.95
2019-04-21T08:26:31.211Z,4.50
2019-04-21T08:27:01.809Z,4.60
2019-04-21T08:27:25.721Z,4.42
2019-04-21T08:27:59.856Z,4.50
2019-04-21T08:28:35.435Z,4.75
2019-04-21T08:29:12.613Z,4.63
2019-04-21T08:29:39.479Z,4.40
2019-04-21T08:30:11.551Z,4.83
2019-04-21T08:30:43.115Z,4.30
2019-04-21T08:31:30.536Z,4.60
2019-04-21T08:31:56.506Z,4.67
2019-04-21T08:32:39.515Z,4.40
2019-04-21T08:33:41.475Z,4.87
2019-04-21T08:34:07.898Z,5.00
2019-04-21T08:34:43.152Z,4.42
2019-04-21T08:35:34.396Z,4.40
2019-04-21T08:36:06.188Z,4.28